createdAt,value
2018-10-05T00:00:15.019Z,14.30
2018-10-05T00:02:43.615Z,14.37
2018-10-05T00:05:12.231Z,12.73
2018-10-05T00:07:40.842Z,14.17
2018-10-05T00:10:09.535Z,13.87
2018-10-05T00:12:38.157Z,13.27
2018-10-05T00:15:06.979Z,13.03
2018-10-05T00:17:35.584Z,13.80
2018-10-05T00:20:04.184Z,13.67
2018-10-05T00:22:32.796Z,12.90
2018-10-05T00:25:01.408Z,12.43
2018-10-05T00:27:30.019Z,15.53
2018-10-05T00:29:58.612Z,13.37
2018-10-05T00:32:27.352Z,13.50
2018-10-05T00:34:55.931Z,14.10
2018-10-05T00:37:24.534Z,13.07
2018-10-05T00:39:53.255Z,13.87
2018-10-05T00:42:21.850Z,14.40
2018-10-05T00:44:50.451Z,13.97
2018-10-05T00:47:19.059Z,15.30
2018-10-05T00:49:47.772Z,13.93
2018-10-05T00:52:16.427Z,13.50
2018-10-05T00:54:45.032Z,14.00
2018-10-05T00:57:13.715Z,13.83
2018-10-05T00:59:42.506Z,13.83
2018-10-05T01:02:11.119Z,13.30
2018-10-05T01:04:39.730Z,15.00
2018-10-05T01:07:08.347Z,13.73
2018-10-05T01:09:36.959Z,15.80
2018-10-05T01:12:06.015Z,13.47
2018-10-05T01:14:34.615Z,15.90
2018-10-05T01:17:03.268Z,15.63
2018-10-05T01:19:31.863Z,14.53
2018-10-05T01:22:00.477Z,13.20
2018-10-05T01:24:29.167Z,13.73
2018-10-05T01:26:57.788Z,14.20
2018-10-05T01:29:26.382Z,13.83
2018-10-05T01:31:54.978Z,13.87
2018-10-05T01:34:23.582Z,14.70
2018-10-05T01:36:52.197Z,14.83
2018-10-05T01:39:20.795Z,15.83
2018-10-05T01:41:49.406Z,15.17
2018-10-05T01:44:18.019Z,14.20
2018-10-05T01:46:46.622Z,15.30
2018-10-05T01:49:15.220Z,13.13
2018-10-05T01:51:43.837Z,14.73
2018-10-05T01:54:12.500Z,14.03
2018-10-05T01:56:41.128Z,14.10
2018-10-05T01:59:09.727Z,13.37
2018-10-05T02:01:38.355Z,14.27
2018-10-05T02:04:06.952Z,13.07
2018-10-05T02:06:35.568Z,12.80
2018-10-05T02:09:04.700Z,13.80
2018-10-05T02:11:33.320Z,13.80
2018-10-05T02:14:01.921Z,13.47
2018-10-05T02:16:30.527Z,13.00
2018-10-05T02:18:59.148Z,14.10
2018-10-05T02:21:27.765Z,12.70
2018-10-05T02:23:56.356Z,13.83
2018-10-05T02:26:24.961Z,13.70
2018-10-05T02:28:53.559Z,12.63
2018-10-05T02:31:22.176Z,15.10
2018-10-05T02:33:50.798Z,12.50
2018-10-05T02:36:19.416Z,13.00
2018-10-05T02:38:48.027Z,11.93
2018-10-05T02:41:16.640Z,12.73
2018-10-05T02:43:45.264Z,12.20
2018-10-05T02:46:13.859Z,12.77
2018-10-05T02:48:42.475Z,13.27
2018-10-05T02:51:11.072Z,12.77
2018-10-05T02:53:39.692Z,13.07
2018-10-05T02:56:08.292Z,12.20
2018-10-05T02:58:36.920Z,11.20
2018-10-05T03:01:17.059Z,13.70
2018-10-05T03:03:45.675Z,13.97
2018-10-05T03:06:14.294Z,12.70
2018-10-05T03:08:42.936Z,11.60
2018-10-05T03:11:11.568Z,12.73
2018-10-05T03:13:40.172Z,12.47
2018-10-05T03:16:08.775Z,13.37
2018-10-05T03:18:37.380Z,12.67
2018-10-05T03:21:06.196Z,11.57
2018-10-05T03:23:34.807Z,12.23
2018-10-05T03:26:03.403Z,13.03
2018-10-05T03:28:32.012Z,12.30
2018-10-05T03:31:00.628Z,11.87
2018-10-05T03:33:29.273Z,12.10
2018-10-05T03:35:57.856Z,12.17
2018-10-05T03:38:26.464Z,13.20
2018-10-05T03:40:55.060Z,13.03
2018-10-05T03:43:23.960Z,12.13
2018-10-05T03:45:52.564Z,12.83
2018-10-05T03:48:21.154Z,12.50
2018-10-05T03:50:49.752Z,13.80
2018-10-05T03:53:18.352Z,12.80
2018-10-05T03:55:46.948Z,13.20
2018-10-05T03:58:15.557Z,12.53
2018-10-05T04:00:44.170Z,13.60
2018-10-05T04:03:12.759Z,12.50
2018-10-05T04:05:41.347Z,13.90
2018-10-05T04:08:09.951Z,11.83
2018-10-05T04:10:38.552Z,13.50
2018-10-05T04:13:07.174Z,14.50
2018-10-05T04:15:35.756Z,14.00
2018-10-05T04:18:04.404Z,13.27
2018-10-05T04:20:32.998Z,12.90
2018-10-05T04:23:01.604Z,12.43
2018-10-05T04:25:30.214Z,13.67
2018-10-05T04:27:58.808Z,14.13
2018-10-05T04:30:27.420Z,13.00
2018-10-05T04:32:56.007Z,13.00
2018-10-05T04:35:24.664Z,11.83
2018-10-05T04:37:53.205Z,11.97
2018-10-05T04:40:21.811Z,12.43
2018-10-05T04:42:50.434Z,12.27
2018-10-05T04:45:19.032Z,11.67
2018-10-05T04:47:47.627Z,12.70
2018-10-05T04:50:16.235Z,13.23
2018-10-05T04:52:44.844Z,15.13
2018-10-05T04:55:13.451Z,15.07
2018-10-05T04:57:42.052Z,15.20
2018-10-05T05:00:10.668Z,19.40
2018-10-05T05:02:39.275Z,36.73
2018-10-05T05:05:07.899Z,36.20
2018-10-05T05:07:36.498Z,30.77
2018-10-05T05:10:05.284Z,24.50
2018-10-05T05:12:33.879Z,25.20
2018-10-05T05:15:02.488Z,34.00
2018-10-05T05:17:31.123Z,40.23
2018-10-05T05:19:59.727Z,39.53
2018-10-05T05:22:28.372Z,28.63
2018-10-05T05:24:57.002Z,25.00
2018-10-05T05:27:25.602Z,20.90
2018-10-05T05:29:54.216Z,12.87
2018-10-05T05:32:22.807Z,13.13
2018-10-05T05:34:51.422Z,13.60
2018-10-05T05:37:20.016Z,15.93
2018-10-05T05:39:48.621Z,14.97
2018-10-05T05:42:17.207Z,16.77
2018-10-05T05:44:45.807Z,14.93
2018-10-05T05:47:14.412Z,18.70
2018-10-05T05:49:43.018Z,18.30
2018-10-05T05:52:11.630Z,16.40
2018-10-05T05:54:40.224Z,15.00
2018-10-05T05:57:08.819Z,15.70
2018-10-05T05:59:37.424Z,15.20
2018-10-05T06:02:06.030Z,15.37
2018-10-05T06:04:34.665Z,14.37
2018-10-05T06:07:03.255Z,14.40
2018-10-05T06:09:31.856Z,14.00
2018-10-05T06:12:00.456Z,13.70
2018-10-05T06:14:29.071Z,13.43
2018-10-05T06:16:57.752Z,13.90
2018-10-05T06:19:26.359Z,13.70
2018-10-05T06:21:55.051Z,14.23
2018-10-05T06:24:23.581Z,14.27
2018-10-05T06:26:52.181Z,13.47
2018-10-05T06:29:20.780Z,12.90
2018-10-05T06:31:49.380Z,12.20
2018-10-05T06:34:18.668Z,11.80
2018-10-05T06:36:47.272Z,11.37
2018-10-05T06:39:30.768Z,11.90
2018-10-05T06:41:59.384Z,11.77
2018-10-05T06:44:27.979Z,10.80
2018-10-05T06:46:56.592Z,13.03
2018-10-05T06:49:25.199Z,12.60
2018-10-05T06:51:53.964Z,12.50
2018-10-05T06:54:22.540Z,12.40
2018-10-05T06:56:51.212Z,12.63
2018-10-05T06:59:19.829Z,13.60
2018-10-05T07:01:48.508Z,13.80
2018-10-05T07:04:17.079Z,12.83
2018-10-05T07:06:45.704Z,13.00
2018-10-05T07:09:14.373Z,13.20
2018-10-05T07:11:42.946Z,11.80
2018-10-05T07:14:11.548Z,12.07
2018-10-05T07:16:40.764Z,10.93
2018-10-05T07:19:09.372Z,11.40
2018-10-05T07:21:38.016Z,11.50
2018-10-05T07:24:07.159Z,11.43
2018-10-05T07:26:35.824Z,11.07
2018-10-05T07:29:04.479Z,11.00
2018-10-05T07:31:33.069Z,10.23
2018-10-05T07:34:01.684Z,10.13
2018-10-05T07:36:30.287Z,9.80
2018-10-05T07:38:58.883Z,11.00
2018-10-05T07:41:27.514Z,11.60
2018-10-05T07:43:56.125Z,11.43
2018-10-05T07:46:24.734Z,11.23
2018-10-05T07:48:53.342Z,10.10
2018-10-05T07:51:21.940Z,11.53
2018-10-05T07:53:50.584Z,11.13
2018-10-05T07:56:19.256Z,11.40
2018-10-05T07:58:47.829Z,10.40
2018-10-05T08:01:16.464Z,12.43
2018-10-05T08:03:45.138Z,11.33
2018-10-05T08:06:13.768Z,11.23
2018-10-05T08:08:42.400Z,11.90
2018-10-05T08:11:11.015Z,9.97
2018-10-05T08:13:39.622Z,9.73
2018-10-05T08:16:08.278Z,9.90
2018-10-05T08:18:36.858Z,10.50
2018-10-05T08:21:05.655Z,11.83
2018-10-05T08:23:34.199Z,10.27
2018-10-05T08:26:02.811Z,10.57
2018-10-05T08:28:31.413Z,10.60
2018-10-05T08:31:00.016Z,10.20
2018-10-05T08:33:28.628Z,10.97
2018-10-05T08:35:57.252Z,10.60
2018-10-05T08:38:25.881Z,8.93
2018-10-05T08:40:54.489Z,10.03
2018-10-05T08:43:23.096Z,8.67
2018-10-05T08:45:51.805Z,9.43
2018-10-05T08:48:20.326Z,8.90
2018-10-05T08:50:48.987Z,8.10
2018-10-05T08:53:17.615Z,8.57
2018-10-05T08:55:46.211Z,8.50
2018-10-05T08:58:14.806Z,8.97
2018-10-05T09:00:43.419Z,9.20
2018-10-05T09:03:12.035Z,7.67
2018-10-05T09:05:40.700Z,6.90
2018-10-05T09:08:09.257Z,7.77
2018-10-05T09:10:37.863Z,7.10
2018-10-05T09:13:06.543Z,7.80
2018-10-05T09:15:35.168Z,6.93
2018-10-05T09:18:03.808Z,6.70
2018-10-05T09:20:32.405Z,6.50
2018-10-05T09:23:01.016Z,5.70
2018-10-05T09:25:29.613Z,5.10
2018-10-05T09:27:58.219Z,4.97
2018-10-05T09:30:26.836Z,6.00
2018-10-05T09:32:55.432Z,5.47
2018-10-05T09:35:24.047Z,5.07
2018-10-05T09:37:52.778Z,4.60
2018-10-05T09:40:21.311Z,5.80
2018-10-05T09:42:49.908Z,5.47
2018-10-05T09:45:18.591Z,4.93
2018-10-05T09:47:47.131Z,5.57
2018-10-05T09:50:15.764Z,5.40
2018-10-05T09:52:44.475Z,5.20
2018-10-05T09:55:13.068Z,4.80
2018-10-05T09:57:41.727Z,4.83
2018-10-05T10:00:14.614Z,4.10
2018-10-05T10:02:48.711Z,4.47
2018-10-05T10:05:17.334Z,4.50
2018-10-05T10:07:45.940Z,4.63
2018-10-05T10:10:14.540Z,4.67
2018-10-05T10:12:43.172Z,4.57
2018-10-05T10:15:11.776Z,4.60
2018-10-05T10:17:40.379Z,4.30
2018-10-05T10:20:08.976Z,4.03
2018-10-05T10:22:37.635Z,4.17
2018-10-05T10:25:06.179Z,4.13
2018-10-05T10:27:34.819Z,4.30
2018-10-05T10:30:03.404Z,4.00
2018-10-05T10:32:32.011Z,3.70
2018-10-05T10:35:00.623Z,3.97
2018-10-05T10:37:29.235Z,4.07
2018-10-05T10:39:57.915Z,4.03
2018-10-05T10:42:26.497Z,4.17
2018-10-05T10:44:55.051Z,3.73
2018-10-05T10:47:23.651Z,4.03
2018-10-05T10:49:52.466Z,3.60
2018-10-05T10:52:21.059Z,3.75
2018-10-05T10:54:49.659Z,4.00
2018-10-05T10:57:18.267Z,4.28
2018-10-05T10:59:46.876Z,4.17
2018-10-05T11:02:15.561Z,4.33
2018-10-05T11:04:44.611Z,5.42
2018-10-05T11:07:13.165Z,3.80
2018-10-05T11:09:41.813Z,3.90
2018-10-05T11:12:10.409Z,3.65
2018-10-05T11:14:39.026Z,4.05
2018-10-05T11:17:07.648Z,3.40
2018-10-05T11:19:36.224Z,3.60
2018-10-05T11:22:04.836Z,3.30
2018-10-05T11:24:33.448Z,3.00
2018-10-05T11:27:02.073Z,2.92
2018-10-05T11:29:30.755Z,3.00
2018-10-05T11:31:59.312Z,2.87
2018-10-05T11:34:27.919Z,2.83
2018-10-05T11:36:56.603Z,2.92
2018-10-05T11:39:25.219Z,2.35
2018-10-05T11:41:53.810Z,2.40
2018-10-05T11:44:22.423Z,2.92
2018-10-05T11:46:51.018Z,2.35
2018-10-05T11:49:19.611Z,2.10
2018-10-05T11:51:48.317Z,2.02
2018-10-05T11:54:16.929Z,2.40
2018-10-05T11:56:45.529Z,3.20
2018-10-05T11:59:14.124Z,2.55
2018-10-05T12:01:42.705Z,2.20
2018-10-05T12:04:11.325Z,2.20
2018-10-05T12:06:39.927Z,2.27
2018-10-05T12:09:09.021Z,2.10
2018-10-05T12:11:38.003Z,2.60
2018-10-05T12:14:06.619Z,2.55
2018-10-05T12:16:35.215Z,2.02
2018-10-05T12:19:03.846Z,2.05
2018-10-05T12:21:32.713Z,2.40
2018-10-05T12:24:01.628Z,2.55
2018-10-05T12:26:30.277Z,2.05
2018-10-05T12:28:58.828Z,2.47
2018-10-05T12:31:27.451Z,2.55
2018-10-05T12:33:56.068Z,1.95
2018-10-05T12:36:24.667Z,2.02
2018-10-05T12:38:53.283Z,2.02
2018-10-05T12:41:21.891Z,2.12
2018-10-05T12:43:50.504Z,1.80
2018-10-05T12:46:19.108Z,2.02
2018-10-05T12:48:47.712Z,1.60
2018-10-05T12:51:16.317Z,1.70
2018-10-05T12:53:44.935Z,2.05
2018-10-05T12:56:13.543Z,2.33
2018-10-05T12:58:42.155Z,2.10
2018-10-05T13:01:10.767Z,6.75
2018-10-05T13:03:39.368Z,2.22
2018-10-05T13:06:08.021Z,1.90
2018-10-05T13:08:36.619Z,2.10
2018-10-05T13:11:05.240Z,2.12
2018-10-05T13:13:33.866Z,1.92
2018-10-05T13:16:02.459Z,1.60
2018-10-05T13:18:31.096Z,2.10
2018-10-05T13:20:59.712Z,1.87
2018-10-05T13:23:28.312Z,3.22
2018-10-05T13:25:56.947Z,2.42
2018-10-05T13:28:25.592Z,2.17
2018-10-05T13:30:54.160Z,2.10
2018-10-05T13:33:22.755Z,2.42
2018-10-05T13:35:51.384Z,1.67
2018-10-05T13:38:19.990Z,1.95
2018-10-05T13:40:48.591Z,1.80
2018-10-05T13:43:17.204Z,2.00
2018-10-05T13:45:45.803Z,2.08
2018-10-05T13:48:14.435Z,2.37
2018-10-05T13:50:43.045Z,2.20
2018-10-05T13:53:11.643Z,2.80
2018-10-05T13:55:40.243Z,2.10
2018-10-05T13:58:08.848Z,2.12
2018-10-05T14:00:37.453Z,2.20
2018-10-05T14:03:06.047Z,1.52
2018-10-05T14:05:34.658Z,1.82
2018-10-05T14:08:03.653Z,2.00
2018-10-05T14:10:32.384Z,1.65
2018-10-05T14:13:00.908Z,2.17
2018-10-05T14:15:29.521Z,1.75
2018-10-05T14:17:58.124Z,2.67
2018-10-05T14:20:26.759Z,2.02
2018-10-05T14:22:55.348Z,1.70
2018-10-05T14:25:24.080Z,1.92
2018-10-05T14:27:52.688Z,1.60
2018-10-05T14:30:21.294Z,1.55
2018-10-05T14:32:49.933Z,2.10
2018-10-05T14:35:18.703Z,1.80
2018-10-05T14:37:47.337Z,1.70
2018-10-05T14:40:16.023Z,2.12
2018-10-05T14:42:44.633Z,2.00
2018-10-05T14:50:00.634Z,2.05
2018-10-05T14:52:29.327Z,1.67
2018-10-05T14:54:57.926Z,1.92
2018-10-05T14:57:26.602Z,1.92
2018-10-05T14:59:55.131Z,1.90
2018-10-05T15:02:23.735Z,1.87
2018-10-05T15:04:52.331Z,2.17
2018-10-05T15:07:20.943Z,1.98
2018-10-05T15:09:49.535Z,1.90
2018-10-05T15:12:18.139Z,2.02
2018-10-05T15:14:46.747Z,1.95
2018-10-05T15:17:15.363Z,2.08
2018-10-05T15:19:43.958Z,2.40
2018-10-05T15:22:12.645Z,1.98
2018-10-05T15:24:41.156Z,2.10
2018-10-05T15:27:10.319Z,2.15
2018-10-05T15:29:38.917Z,2.02
2018-10-05T15:32:07.511Z,2.20
2018-10-05T15:34:36.148Z,2.00
2018-10-05T15:37:04.768Z,2.20
2018-10-05T15:39:33.374Z,2.05
2018-10-05T15:42:01.979Z,2.22
2018-10-05T15:44:30.601Z,1.92
2018-10-05T15:47:02.284Z,1.90
2018-10-05T15:49:31.710Z,2.10
2018-10-05T15:52:00.615Z,1.98
2018-10-05T15:54:29.232Z,2.25
2018-10-05T15:56:57.831Z,1.80
2018-10-05T15:59:26.910Z,2.33
2018-10-05T16:01:55.648Z,2.00
2018-10-05T16:04:24.247Z,2.60
2018-10-05T16:06:52.839Z,2.40
2018-10-05T16:09:21.543Z,2.33
2018-10-05T16:11:50.146Z,1.90
2018-10-05T16:14:18.858Z,2.40
2018-10-05T16:16:47.539Z,2.30
2018-10-05T16:19:16.163Z,3.80
2018-10-05T16:21:44.763Z,3.90
2018-10-05T16:24:18.744Z,3.83
2018-10-05T16:26:47.346Z,2.10
2018-10-05T16:29:15.975Z,2.53
2018-10-05T16:31:44.804Z,2.97
2018-10-05T16:34:13.432Z,2.83
2018-10-05T16:36:42.032Z,3.13
2018-10-05T16:39:11.646Z,2.80
2018-10-05T16:41:40.239Z,2.77
2018-10-05T16:44:08.875Z,2.80
2018-10-05T16:46:38.144Z,2.40
2018-10-05T16:49:08.175Z,2.23
2018-10-05T16:51:36.791Z,2.23
2018-10-05T16:54:05.506Z,2.30
2018-10-05T16:56:34.175Z,2.77
2018-10-05T16:59:02.890Z,2.83
2018-10-05T17:01:31.501Z,2.40
2018-10-05T17:04:00.155Z,2.53
2018-10-05T17:06:28.979Z,2.87
2018-10-05T17:09:01.136Z,3.03
2018-10-05T17:11:29.733Z,2.30
2018-10-05T17:13:58.379Z,3.77
2018-10-05T17:16:27.044Z,3.97
2018-10-05T17:18:55.667Z,3.77
2018-10-05T17:21:24.264Z,4.07
2018-10-05T17:23:52.872Z,4.00
2018-10-05T17:26:21.467Z,4.50
2018-10-05T17:28:50.078Z,3.20
2018-10-05T17:31:18.709Z,3.40
2018-10-05T17:33:47.337Z,5.17
2018-10-05T17:36:15.931Z,3.50
2018-10-05T17:38:44.648Z,4.10
2018-10-05T17:41:13.283Z,3.90
2018-10-05T17:43:41.892Z,4.30
2018-10-05T17:46:10.523Z,4.37
2018-10-05T17:48:39.146Z,3.73
2018-10-05T17:51:07.755Z,3.73
2018-10-05T17:53:36.447Z,4.00
2018-10-05T17:56:05.151Z,3.83
2018-10-05T17:58:33.672Z,3.90
2018-10-05T18:01:02.296Z,4.40
2018-10-05T18:03:30.906Z,4.20
2018-10-05T18:05:59.523Z,5.10
2018-10-05T18:08:28.140Z,4.20
2018-10-05T18:10:56.739Z,5.77
2018-10-05T18:13:25.344Z,6.33
2018-10-05T18:15:53.967Z,6.03
2018-10-05T18:18:23.733Z,6.80
2018-10-05T18:20:52.616Z,6.33
2018-10-05T18:23:21.832Z,7.20
2018-10-05T18:25:50.848Z,6.50
2018-10-05T18:28:19.432Z,6.90
2018-10-05T18:30:48.046Z,7.63
2018-10-05T18:33:16.651Z,7.00
2018-10-05T18:35:45.275Z,8.70
2018-10-05T18:38:13.881Z,7.67
2018-10-05T18:40:42.496Z,8.17
2018-10-05T18:43:11.095Z,8.23
2018-10-05T18:45:39.711Z,7.80
2018-10-05T18:48:08.312Z,8.73
2018-10-05T18:50:36.939Z,9.67
2018-10-05T18:53:05.568Z,9.60
2018-10-05T18:55:34.187Z,10.60
2018-10-05T18:58:02.791Z,9.10
2018-10-05T19:00:31.413Z,9.33
2018-10-05T19:03:00.013Z,8.03
2018-10-05T19:05:28.622Z,8.37
2018-10-05T19:07:57.224Z,8.30
2018-10-05T19:10:25.833Z,8.80
2018-10-05T19:12:54.443Z,8.40
2018-10-05T19:15:23.064Z,7.80
2018-10-05T19:17:51.672Z,8.03
2018-10-05T19:20:20.271Z,7.93
2018-10-05T19:22:48.881Z,8.77
2018-10-05T19:25:17.484Z,8.80
2018-10-05T19:27:46.087Z,8.07
2018-10-05T19:30:14.696Z,8.80
2018-10-05T19:32:43.313Z,9.30
2018-10-05T19:35:11.947Z,9.00
2018-10-05T19:37:40.555Z,9.20
2018-10-05T19:40:09.460Z,9.57
2018-10-05T19:42:38.075Z,8.70
2018-10-05T19:45:07.370Z,9.67
2018-10-05T19:47:36.021Z,8.43
2018-10-05T19:50:04.836Z,8.30
2018-10-05T19:52:33.628Z,7.80
2018-10-05T19:55:02.204Z,7.07
2018-10-05T19:57:30.814Z,7.90
2018-10-05T19:59:59.412Z,8.03
2018-10-05T20:02:28.039Z,7.70
2018-10-05T20:04:56.643Z,9.13
2018-10-05T20:07:25.279Z,9.40
2018-10-05T20:09:53.921Z,9.27
2018-10-05T20:12:22.475Z,9.80
2018-10-05T20:14:51.094Z,10.30
2018-10-05T20:17:19.712Z,11.80
2018-10-05T20:19:48.325Z,12.27
2018-10-05T20:22:16.944Z,14.63
2018-10-05T20:24:45.552Z,15.80
2018-10-05T20:27:14.164Z,14.77
2018-10-05T20:29:42.771Z,14.80
2018-10-05T20:32:11.408Z,12.80
2018-10-05T20:34:40.017Z,13.50
2018-10-05T20:37:08.861Z,13.07
2018-10-05T20:39:37.267Z,13.43
2018-10-05T20:42:05.887Z,11.97
2018-10-05T20:44:34.587Z,11.80
2018-10-05T20:47:03.143Z,11.57
2018-10-05T20:49:31.764Z,11.30
2018-10-05T20:52:00.391Z,9.30
2018-10-05T20:54:28.984Z,9.83
2018-10-05T20:56:57.591Z,9.17
2018-10-05T20:59:26.196Z,8.67
2018-10-05T21:01:54.807Z,9.50
2018-10-05T21:04:23.494Z,12.07
2018-10-05T21:06:52.060Z,10.87
2018-10-05T21:09:20.648Z,10.53
2018-10-05T21:11:49.264Z,9.97
2018-10-05T21:14:17.870Z,9.67
2018-10-05T21:16:46.485Z,9.47
2018-10-05T21:19:15.097Z,9.10
2018-10-05T21:21:43.691Z,9.47
2018-10-05T21:24:12.305Z,10.20
2018-10-05T21:26:40.912Z,9.33
2018-10-05T21:29:09.517Z,8.73
2018-10-05T21:31:38.150Z,9.57
2018-10-05T21:34:06.863Z,9.17
2018-10-05T21:36:35.470Z,8.53
2018-10-05T21:39:06.066Z,9.10
2018-10-05T21:41:34.656Z,9.67
2018-10-05T21:44:03.281Z,9.57
2018-10-05T21:46:32.030Z,8.73
2018-10-05T21:49:00.636Z,10.37
2018-10-05T21:51:29.356Z,10.60
2018-10-05T21:53:57.931Z,10.50
2018-10-05T21:56:26.556Z,10.60
2018-10-05T21:58:55.180Z,11.50
2018-10-05T22:01:23.792Z,11.93
2018-10-05T22:03:52.403Z,10.90
2018-10-05T22:06:21.014Z,11.00
2018-10-05T22:08:49.630Z,11.23
2018-10-05T22:11:18.272Z,10.50
2018-10-05T22:13:46.893Z,12.57
2018-10-05T22:16:15.506Z,11.87
2018-10-05T22:18:44.117Z,13.20
2018-10-05T22:21:12.728Z,11.67
2018-10-05T22:23:41.351Z,12.67
2018-10-05T22:26:09.956Z,12.30
2018-10-05T22:28:38.571Z,12.80
2018-10-05T22:31:07.196Z,12.87
2018-10-05T22:33:35.815Z,12.63
2018-10-05T22:36:04.436Z,12.47
2018-10-05T22:38:33.045Z,13.30
2018-10-05T22:41:01.664Z,13.37
2018-10-05T22:43:30.283Z,11.83
2018-10-05T22:45:58.887Z,12.63
2018-10-05T22:48:27.519Z,11.57
2018-10-05T22:50:56.122Z,12.27
2018-10-05T22:53:24.732Z,12.20
2018-10-05T22:55:53.332Z,11.53
2018-10-05T22:59:46.651Z,12.10
2018-10-05T23:02:15.268Z,12.00
2018-10-05T23:04:43.891Z,11.50
2018-10-05T23:07:12.506Z,11.60
2018-10-05T23:09:41.131Z,11.70
2018-10-05T23:12:09.753Z,11.50
2018-10-05T23:14:38.380Z,11.87
2018-10-05T23:17:07.013Z,11.80
2018-10-05T23:19:35.629Z,13.10
2018-10-05T23:22:04.242Z,11.03
2018-10-05T23:24:32.860Z,11.13
2018-10-05T23:27:01.472Z,10.37
2018-10-05T23:29:30.087Z,10.47
2018-10-05T23:31:58.704Z,11.37
2018-10-05T23:34:27.329Z,11.10
2018-10-05T23:36:55.936Z,12.43
2018-10-05T23:39:24.547Z,12.60
2018-10-05T23:41:53.155Z,10.63
2018-10-05T23:44:21.770Z,9.67
2018-10-05T23:46:50.383Z,11.80
2018-10-05T23:49:19.012Z,12.00
2018-10-05T23:51:47.624Z,11.70
2018-10-05T23:54:16.252Z,11.47
2018-10-05T23:56:44.878Z,10.70
2018-10-05T23:59:13.516Z,10.10
